createdAt,value
2018-02-09T00:00:57.990Z,111.23
2018-02-09T00:03:27.844Z,93.50
2018-02-09T00:05:57.755Z,104.70
2018-02-09T00:08:27.629Z,103.03
2018-02-09T00:10:57.828Z,102.03
2018-02-09T00:13:27.770Z,102.97
2018-02-09T00:15:57.794Z,102.30
2018-02-09T00:18:27.694Z,96.37
2018-02-09T00:20:57.946Z,105.60
2018-02-09T00:23:27.818Z,94.73
2018-02-09T00:25:59.176Z,89.57
2018-02-09T00:28:29.023Z,92.83
2018-02-09T00:30:58.882Z,95.80
2018-02-09T00:33:28.728Z,98.90
2018-02-09T00:35:58.587Z,102.17
2018-02-09T00:38:28.566Z,100.67
2018-02-09T00:40:58.410Z,108.23
2018-02-09T00:43:28.353Z,103.10
2018-02-09T00:45:58.320Z,108.47
2018-02-09T00:48:28.181Z,94.27
2018-02-09T00:50:58.092Z,104.43
2018-02-09T00:53:27.954Z,103.63
2018-02-09T00:55:57.902Z,105.97
2018-02-09T00:58:27.794Z,99.57
2018-02-09T01:00:58.037Z,94.80
2018-02-09T01:03:27.870Z,105.30
2018-02-09T01:05:57.748Z,104.40
2018-02-09T01:08:27.598Z,101.80
2018-02-09T01:10:57.840Z,87.17
2018-02-09T01:13:27.737Z,88.63
2018-02-09T01:15:57.618Z,104.53
2018-02-09T01:18:27.585Z,109.73
2018-02-09T01:20:57.485Z,101.63
2018-02-09T01:23:27.344Z,100.40
2018-02-09T01:25:57.286Z,117.30
2018-02-09T01:28:27.200Z,94.33
2018-02-09T01:30:57.067Z,95.63
2018-02-09T01:33:27.092Z,132.30
2018-02-09T01:35:56.965Z,119.63
2018-02-09T01:38:26.858Z,93.43
2018-02-09T01:40:56.793Z,116.07
2018-02-09T01:43:26.662Z,101.80
2018-02-09T01:45:56.518Z,106.10
2018-02-09T01:48:26.741Z,115.00
2018-02-09T01:50:56.569Z,110.77
2018-02-09T01:53:26.632Z,111.67
2018-02-09T01:55:56.521Z,124.70
2018-02-09T01:58:26.656Z,109.77
2018-02-09T02:00:56.529Z,107.80
2018-02-09T02:03:26.478Z,110.43
2018-02-09T02:05:56.357Z,119.43
2018-02-09T02:08:26.199Z,105.63
2018-02-09T02:10:56.073Z,114.07
2018-02-09T02:13:25.936Z,108.90
2018-02-09T02:15:56.069Z,118.10
2018-02-09T02:18:25.926Z,107.37
2018-02-09T02:20:56.059Z,117.37
2018-02-09T02:23:25.945Z,119.17
2018-02-09T02:25:56.085Z,129.37
2018-02-09T02:28:25.936Z,111.27
2018-02-09T02:30:55.848Z,103.47
2018-02-09T02:33:25.709Z,129.03
2018-02-09T02:35:55.669Z,111.83
2018-02-09T02:38:25.574Z,106.80
2018-02-09T02:40:55.783Z,105.13
2018-02-09T02:43:25.634Z,119.60
2018-02-09T02:45:55.792Z,117.03
2018-02-09T02:48:25.739Z,110.40
2018-02-09T02:50:55.884Z,134.37
2018-02-09T02:53:25.737Z,114.37
2018-02-09T02:55:55.623Z,106.70
2018-02-09T02:58:25.508Z,104.40
2018-02-09T03:00:55.403Z,96.90
2018-02-09T03:03:25.263Z,102.23
2018-02-09T03:05:55.141Z,119.27
2018-02-09T03:08:25.022Z,116.57
2018-02-09T03:10:55.791Z,109.20
2018-02-09T03:13:26.099Z,129.10
2018-02-09T03:15:55.965Z,107.47
2018-02-09T03:18:26.087Z,115.27
2018-02-09T03:20:55.946Z,106.37
2018-02-09T03:23:26.104Z,122.33
2018-02-09T03:25:55.963Z,121.00
2018-02-09T03:28:25.875Z,98.37
2018-02-09T03:30:55.712Z,110.07
2018-02-09T03:33:25.642Z,103.43
2018-02-09T03:35:55.556Z,117.90
2018-02-09T03:38:25.777Z,118.87
2018-02-09T03:40:55.703Z,101.97
2018-02-09T03:43:25.568Z,114.17
2018-02-09T03:45:55.578Z,118.53
2018-02-09T03:48:25.563Z,116.53
2018-02-09T03:50:55.505Z,116.47
2018-02-09T03:53:25.693Z,117.00
2018-02-09T03:55:55.543Z,128.80
2018-02-09T03:58:25.478Z,105.10
2018-02-09T04:00:55.325Z,114.80
2018-02-09T04:03:25.199Z,121.27
2018-02-09T04:05:55.140Z,109.17
2018-02-09T04:08:24.979Z,127.10
2018-02-09T04:10:54.847Z,108.07
2018-02-09T04:13:24.704Z,102.63
2018-02-09T04:15:54.967Z,113.97
2018-02-09T04:18:24.794Z,109.13
2018-02-09T04:20:54.753Z,113.50
2018-02-09T04:23:24.632Z,114.93
2018-02-09T04:25:54.804Z,116.73
2018-02-09T04:28:24.704Z,109.63
2018-02-09T04:30:54.569Z,113.43
2018-02-09T04:33:24.474Z,108.13
2018-02-09T04:35:54.377Z,123.20
2018-02-09T04:38:24.467Z,112.23
2018-02-09T04:40:54.585Z,109.17
2018-02-09T04:43:24.492Z,130.20
2018-02-09T04:45:55.407Z,106.37
2018-02-09T04:48:25.282Z,119.30
2018-02-09T04:50:55.124Z,109.07
2018-02-09T04:53:24.970Z,111.73
2018-02-09T04:55:54.856Z,110.40
2018-02-09T04:58:24.800Z,106.73
2018-02-09T05:00:54.662Z,113.43
2018-02-09T05:03:24.786Z,105.17
2018-02-09T05:05:54.820Z,120.47
2018-02-09T05:08:25.068Z,126.63
2018-02-09T05:10:54.963Z,113.03
2018-02-09T05:13:24.888Z,113.33
2018-02-09T05:15:54.722Z,126.93
2018-02-09T05:18:24.774Z,113.80
2018-02-09T05:20:54.762Z,107.53
2018-02-09T05:23:24.970Z,123.37
2018-02-09T05:25:54.845Z,123.27
2018-02-09T05:28:25.041Z,104.63
2018-02-09T05:30:54.951Z,115.47
2018-02-09T05:33:25.156Z,108.90
2018-02-09T05:35:55.058Z,113.20
2018-02-09T05:38:25.226Z,106.40
2018-02-09T05:40:55.052Z,95.83
2018-02-09T05:43:25.159Z,118.13
2018-02-09T05:45:55.083Z,107.37
2018-02-09T05:48:25.053Z,117.00
2018-02-09T05:50:54.915Z,101.20
2018-02-09T05:53:24.792Z,123.30
2018-02-09T05:55:54.709Z,112.40
2018-02-09T05:58:24.648Z,108.70
2018-02-09T06:00:54.573Z,109.00
2018-02-09T06:03:24.528Z,113.93
2018-02-09T06:05:54.413Z,112.70
2018-02-09T06:08:24.384Z,112.60
2018-02-09T06:10:54.264Z,110.03
2018-02-09T06:13:24.127Z,126.10
2018-02-09T06:15:53.960Z,116.83
2018-02-09T06:18:24.079Z,115.53
2018-02-09T06:20:54.232Z,110.43
2018-02-09T06:23:24.236Z,118.00
2018-02-09T06:25:54.197Z,116.43
2018-02-09T06:28:24.071Z,108.37
2018-02-09T06:30:54.235Z,109.83
2018-02-09T06:33:24.653Z,107.77
2018-02-09T06:35:55.538Z,108.20
2018-02-09T06:38:26.246Z,101.80
2018-02-09T06:40:56.220Z,113.07
2018-02-09T06:43:26.141Z,110.57
2018-02-09T06:45:56.313Z,109.00
2018-02-09T06:48:26.185Z,117.57
2018-02-09T06:50:56.234Z,115.10
2018-02-09T06:53:26.209Z,110.13
2018-02-09T06:55:56.114Z,118.37
2018-02-09T06:58:26.337Z,109.50
2018-02-09T07:00:56.198Z,127.73
2018-02-09T07:03:26.148Z,118.00
2018-02-09T07:05:55.998Z,128.70
2018-02-09T07:08:25.910Z,122.77
2018-02-09T07:10:56.123Z,111.30
2018-02-09T07:13:26.009Z,113.23
2018-02-09T07:15:56.227Z,117.07
2018-02-09T07:18:26.243Z,122.70
2018-02-09T07:20:57.225Z,118.57
2018-02-09T07:23:27.187Z,119.83
2018-02-09T07:25:57.129Z,121.47
2018-02-09T07:28:26.987Z,124.23
2018-02-09T07:30:56.850Z,142.67
2018-02-09T07:33:26.719Z,114.97
2018-02-09T07:35:56.591Z,120.10
2018-02-09T07:38:26.475Z,129.20
2018-02-09T07:40:56.362Z,111.73
2018-02-09T07:43:26.260Z,116.17
2018-02-09T07:45:56.121Z,118.97
2018-02-09T07:48:25.988Z,125.77
2018-02-09T07:50:55.869Z,107.17
2018-02-09T07:53:27.643Z,126.77
2018-02-09T07:55:57.484Z,124.27
2018-02-09T07:58:27.630Z,116.20
2018-02-09T08:00:57.706Z,105.67
2018-02-09T08:03:27.993Z,125.13
2018-02-09T08:05:57.832Z,127.10
2018-02-09T08:08:27.984Z,130.17
2018-02-09T08:10:57.871Z,124.87
2018-02-09T08:13:30.803Z,123.83
2018-02-09T08:16:01.169Z,121.23
2018-02-09T08:18:34.814Z,111.87
2018-02-09T08:21:05.140Z,104.47
2018-02-09T08:23:35.619Z,129.30
2018-02-09T08:26:05.458Z,124.57
2018-02-09T08:28:35.317Z,128.60
2018-02-09T08:31:05.310Z,127.53
2018-02-09T08:33:35.310Z,112.73
2018-02-09T08:36:05.264Z,124.63
2018-02-09T08:38:35.284Z,109.63
2018-02-09T08:41:05.156Z,124.10
2018-02-09T08:43:35.138Z,126.70
2018-02-09T08:46:05.372Z,117.03
2018-02-09T08:48:35.245Z,118.20
2018-02-09T08:51:05.186Z,121.23
2018-02-09T08:53:35.824Z,119.90
2018-02-09T08:56:05.678Z,115.40
2018-02-09T08:58:35.608Z,99.57
2018-02-09T09:01:05.570Z,116.90
2018-02-09T09:03:35.762Z,115.33
2018-02-09T09:06:05.625Z,117.97
2018-02-09T09:08:35.614Z,107.67
2018-02-09T09:11:05.513Z,112.40
2018-02-09T09:13:36.114Z,117.73
2018-02-09T09:16:07.274Z,103.53
2018-02-09T09:18:37.184Z,124.67
2018-02-09T09:21:07.039Z,108.17
2018-02-09T09:23:37.913Z,108.07
2018-02-09T09:26:07.852Z,118.53
2018-02-09T09:28:37.768Z,127.00
2018-02-09T09:31:07.671Z,114.90
2018-02-09T09:33:37.632Z,115.70
2018-02-09T09:36:07.524Z,116.53
2018-02-09T09:38:37.813Z,107.17
2018-02-09T09:41:08.434Z,131.77
2018-02-09T09:43:39.406Z,116.90
2018-02-09T09:46:09.294Z,103.93
2018-02-09T09:48:39.188Z,117.63
2018-02-09T09:51:09.050Z,126.77
2018-02-09T09:53:38.961Z,112.50
2018-02-09T09:56:08.980Z,122.53
2018-02-09T09:58:38.872Z,121.87
2018-02-09T10:01:14.545Z,117.63
2018-02-09T10:03:44.436Z,111.07
2018-02-09T10:06:14.462Z,117.53
2018-02-09T10:08:44.449Z,113.77
2018-02-09T10:11:14.380Z,115.53
2018-02-09T10:13:44.247Z,121.93
2018-02-09T10:16:14.163Z,110.70
2018-02-09T10:18:44.008Z,115.60
2018-02-09T10:21:13.894Z,121.13
2018-02-09T10:23:44.173Z,117.80
2018-02-09T10:26:14.107Z,114.63
2018-02-09T10:28:44.244Z,110.80
2018-02-09T10:31:14.086Z,103.53
2018-02-09T10:33:44.118Z,124.73
2018-02-09T10:36:13.970Z,117.37
2018-02-09T10:38:43.828Z,104.07
2018-02-09T10:41:13.672Z,104.83
2018-02-09T10:43:43.578Z,114.77
2018-02-09T10:46:13.542Z,115.80
2018-02-09T10:48:43.701Z,103.53
2018-02-09T10:51:13.595Z,104.37
2018-02-09T10:53:43.737Z,106.73
2018-02-09T10:56:13.596Z,121.10
2018-02-09T10:58:43.793Z,117.27
2018-02-09T11:01:19.335Z,107.43
2018-02-09T11:03:49.353Z,115.13
2018-02-09T11:06:19.223Z,104.87
2018-02-09T11:08:49.123Z,105.73
2018-02-09T11:11:18.994Z,101.77
2018-02-09T11:13:48.876Z,109.83
2018-02-09T11:16:18.786Z,118.33
2018-02-09T11:18:48.620Z,97.97
2018-02-09T11:21:18.802Z,105.50
2018-02-09T11:23:48.687Z,122.83
2018-02-09T11:26:18.622Z,109.33
2018-02-09T11:28:48.470Z,104.23
2018-02-09T11:31:18.615Z,106.87
2018-02-09T11:33:48.570Z,114.67
2018-02-09T11:36:18.799Z,127.40
2018-02-09T11:38:48.643Z,100.67
2018-02-09T11:41:18.764Z,98.37
2018-02-09T11:43:48.659Z,104.67
2018-02-09T11:46:18.572Z,100.03
2018-02-09T11:48:48.434Z,106.90
2018-02-09T11:51:18.379Z,100.40
2018-02-09T11:53:48.225Z,93.87
2018-02-09T11:56:18.073Z,110.10
2018-02-09T11:58:47.946Z,97.97
2018-02-09T12:01:17.834Z,97.67
2018-02-09T12:03:47.749Z,94.10
2018-02-09T12:06:17.600Z,110.93
2018-02-09T12:08:47.736Z,90.03
2018-02-09T12:11:17.626Z,97.60
2018-02-09T12:13:47.480Z,98.10
2018-02-09T12:16:17.365Z,102.73
2018-02-09T12:18:47.245Z,102.07
2018-02-09T12:21:17.089Z,102.07
2018-02-09T12:23:47.093Z,105.03
2018-02-09T12:26:16.935Z,95.10
2018-02-09T12:28:46.821Z,95.83
2018-02-09T12:31:17.084Z,104.13
2018-02-09T12:33:46.929Z,103.83
2018-02-09T12:36:16.818Z,105.60
2018-02-09T12:38:46.687Z,106.90
2018-02-09T12:41:16.635Z,101.40
2018-02-09T12:43:46.505Z,100.53
2018-02-09T12:46:16.513Z,109.97
2018-02-09T12:48:46.411Z,95.60
2018-02-09T12:51:16.287Z,84.67
2018-02-09T12:53:46.164Z,100.07
2018-02-09T12:56:16.070Z,107.23
2018-02-09T12:58:45.900Z,98.73
2018-02-09T13:01:15.812Z,93.90
2018-02-09T13:03:45.669Z,110.63
2018-02-09T13:06:15.617Z,101.40
2018-02-09T13:08:45.478Z,84.07
2018-02-09T13:11:15.369Z,112.00
2018-02-09T13:13:45.562Z,98.70
2018-02-09T13:16:15.446Z,112.47
2018-02-09T13:18:49.600Z,101.43
2018-02-09T13:21:19.597Z,100.57
2018-02-09T13:24:01.186Z,90.57
2018-02-09T13:26:31.022Z,97.67
2018-02-09T13:29:00.870Z,93.83
2018-02-09T13:31:30.699Z,98.27
2018-02-09T13:34:01.682Z,96.23
2018-02-09T13:36:43.214Z,96.73
2018-02-09T13:39:13.101Z,92.50
2018-02-09T13:41:43.019Z,95.60
2018-02-09T13:44:13.218Z,88.87
2018-02-09T13:46:43.077Z,98.37
2018-02-09T13:49:13.405Z,93.37
2018-02-09T13:51:43.278Z,97.17
2018-02-09T13:54:13.188Z,102.90
2018-02-09T13:56:43.325Z,101.50
2018-02-09T13:59:13.211Z,95.03
2018-02-09T14:01:43.520Z,106.00
2018-02-09T14:04:13.409Z,92.47
2018-02-09T14:06:43.290Z,93.73
2018-02-09T14:09:13.164Z,89.87
2018-02-09T14:11:43.012Z,104.80
2018-02-09T14:14:12.861Z,86.17
2018-02-09T14:16:42.826Z,99.53
2018-02-09T14:19:12.720Z,101.07
2018-02-09T14:21:42.654Z,90.53
2018-02-09T14:24:12.770Z,99.67
2018-02-09T14:26:42.640Z,91.00
2018-02-09T14:29:13.149Z,97.90
2018-02-09T14:31:43.034Z,93.73
2018-02-09T14:34:12.916Z,90.80
2018-02-09T14:36:42.772Z,86.17
2018-02-09T14:39:12.782Z,81.70
2018-02-09T14:41:42.698Z,94.17
2018-02-09T14:44:12.879Z,89.57
2018-02-09T14:46:42.708Z,86.03
2018-02-09T14:49:13.345Z,85.53
2018-02-09T14:51:43.901Z,95.30
2018-02-09T14:54:14.013Z,84.87
2018-02-09T14:56:44.206Z,82.87
2018-02-09T14:59:14.086Z,83.27
2018-02-09T15:01:43.941Z,83.03
2018-02-09T15:04:13.817Z,85.67
2018-02-09T15:06:43.847Z,105.57
2018-02-09T15:09:13.855Z,92.23
2018-02-09T15:11:43.737Z,81.00
2018-02-09T15:14:13.911Z,87.43
2018-02-09T15:16:43.755Z,99.97
2018-02-09T15:19:13.648Z,90.27
2018-02-09T15:21:43.954Z,88.37
2018-02-09T15:24:13.824Z,103.30
2018-02-09T15:26:43.713Z,91.40
2018-02-09T15:29:13.631Z,99.00
2018-02-09T15:31:43.510Z,96.77
2018-02-09T15:34:13.486Z,96.37
2018-02-09T15:36:43.357Z,95.20
2018-02-09T15:39:13.252Z,102.40
2018-02-09T15:41:43.143Z,91.97
2018-02-09T15:44:13.078Z,101.60
2018-02-09T15:46:43.286Z,90.27
2018-02-09T15:49:13.161Z,94.97
2018-02-09T15:51:43.061Z,106.30
2018-02-09T15:54:13.027Z,101.53
2018-02-09T15:56:42.961Z,114.17
2018-02-09T15:59:12.808Z,109.83
2018-02-09T16:01:43.344Z,126.53
2018-02-09T16:04:13.192Z,117.90
2018-02-09T16:06:43.135Z,112.73
2018-02-09T16:09:12.981Z,108.83
2018-02-09T16:11:42.850Z,115.83
2018-02-09T16:14:12.703Z,133.63
2018-02-09T16:16:42.630Z,120.53
2018-02-09T16:19:12.575Z,129.97
2018-02-09T16:21:42.560Z,125.50
2018-02-09T16:24:12.457Z,133.10
2018-02-09T16:26:42.364Z,144.03
2018-02-09T16:29:12.440Z,133.73
2018-02-09T16:31:42.321Z,144.63
2018-02-09T16:34:12.232Z,148.07
2018-02-09T16:36:42.178Z,134.13
2018-02-09T16:39:12.144Z,153.37
2018-02-09T16:41:42.034Z,147.20
2018-02-09T16:44:11.881Z,139.40
2018-02-09T16:46:41.770Z,141.63
2018-02-09T16:49:11.617Z,147.67
2018-02-09T16:51:41.764Z,144.53
2018-02-09T16:54:11.616Z,138.97
2018-02-09T16:56:41.491Z,142.43
2018-02-09T16:59:11.333Z,145.73
2018-02-09T17:01:41.921Z,135.80
2018-02-09T17:04:11.881Z,156.43
2018-02-09T17:06:41.856Z,139.67
2018-02-09T17:09:11.682Z,143.17
2018-02-09T17:11:41.591Z,139.73
2018-02-09T17:14:11.540Z,140.53
2018-02-09T17:16:41.653Z,138.53
2018-02-09T17:19:11.499Z,134.50
2018-02-09T17:21:41.449Z,143.63
2018-02-09T17:24:11.346Z,121.67
2018-02-09T17:26:41.169Z,145.83
2018-02-09T17:29:12.082Z,135.20
2018-02-09T17:31:41.907Z,133.73
2018-02-09T17:34:11.768Z,131.17
2018-02-09T17:36:41.646Z,139.63
2018-02-09T17:39:11.526Z,139.73
2018-02-09T17:41:41.452Z,126.90
2018-02-09T17:44:11.322Z,122.23
2018-02-09T17:46:41.152Z,126.97
2018-02-09T17:49:11.023Z,133.77
2018-02-09T17:51:40.868Z,134.97
2018-02-09T17:54:10.710Z,124.90
2018-02-09T17:56:40.574Z,130.20
2018-02-09T17:59:10.588Z,125.30
2018-02-09T18:01:40.537Z,116.33
2018-02-09T18:04:10.436Z,134.23
2018-02-09T18:06:40.346Z,144.37
2018-02-09T18:09:10.181Z,131.13
2018-02-09T18:11:40.092Z,127.77
2018-02-09T18:14:09.991Z,150.43
2018-02-09T18:16:39.868Z,124.93
2018-02-09T18:19:09.751Z,150.37
2018-02-09T18:21:39.647Z,134.90
2018-02-09T18:24:09.501Z,144.80
2018-02-09T18:26:39.354Z,148.37
2018-02-09T18:29:09.269Z,136.63
2018-02-09T18:31:39.131Z,135.80
2018-02-09T18:34:09.100Z,137.40
2018-02-09T18:36:38.985Z,131.40
2018-02-09T18:39:08.830Z,138.97
2018-02-09T18:41:38.708Z,135.27
2018-02-09T18:44:08.674Z,132.80
2018-02-09T18:46:38.584Z,127.63
2018-02-09T18:49:08.457Z,131.53
2018-02-09T18:51:38.342Z,136.73
2018-02-09T18:54:08.187Z,127.70
2018-02-09T18:56:38.047Z,127.47
2018-02-09T18:59:07.927Z,142.50
2018-02-09T19:01:37.769Z,140.60
2018-02-09T19:04:07.633Z,136.60
2018-02-09T19:06:37.482Z,155.90
2018-02-09T19:09:07.462Z,145.17
2018-02-09T19:11:37.302Z,141.90
2018-02-09T19:14:07.209Z,147.57
2018-02-09T19:16:37.052Z,138.73
2018-02-09T19:19:06.919Z,147.80
2018-02-09T19:21:36.810Z,152.47
2018-02-09T19:24:06.698Z,142.20
2018-02-09T19:26:36.748Z,161.47
2018-02-09T19:29:06.664Z,152.27
2018-02-09T19:31:36.619Z,154.10
2018-02-09T19:34:06.513Z,145.53
2018-02-09T19:36:36.605Z,149.97
2018-02-09T19:39:06.539Z,149.53
2018-02-09T19:41:36.443Z,154.13
2018-02-09T19:44:06.298Z,165.47
2018-02-09T19:46:36.377Z,159.47
2018-02-09T19:49:06.357Z,157.40
2018-02-09T19:51:36.309Z,148.47
2018-02-09T19:54:06.359Z,159.67
2018-02-09T19:56:36.482Z,158.70
2018-02-09T19:59:06.493Z,155.23
2018-02-09T20:01:36.653Z,170.73
2018-02-09T20:04:06.712Z,175.17
2018-02-09T20:06:36.795Z,166.70
2018-02-09T20:09:06.879Z,159.97
2018-02-09T20:11:36.918Z,170.50
2018-02-09T20:14:06.929Z,158.37
2018-02-09T20:16:37.004Z,179.10
2018-02-09T20:19:06.942Z,191.43
2018-02-09T20:21:36.982Z,194.23
2018-02-09T20:24:06.897Z,183.03
2018-02-09T20:26:37.563Z,196.97
2018-02-09T20:29:18.708Z,188.23
2018-02-09T20:31:48.934Z,193.90
2018-02-09T20:34:19.035Z,180.47
2018-02-09T20:36:49.254Z,198.43
2018-02-09T20:39:19.324Z,187.33
2018-02-09T20:41:49.577Z,174.93
2018-02-09T20:44:19.588Z,180.57
2018-02-09T20:46:51.372Z,184.13
2018-02-09T20:49:22.208Z,196.83
2018-02-09T20:51:52.384Z,198.00
2018-02-09T20:54:23.434Z,207.60
2018-02-09T20:56:53.502Z,197.60
2018-02-09T20:59:23.684Z,208.40
2018-02-09T21:01:53.800Z,189.37
2018-02-09T21:04:23.936Z,207.33
2018-02-09T21:06:54.816Z,201.77
2018-02-09T21:09:24.959Z,218.83
2018-02-09T21:11:55.008Z,184.60
2018-02-09T21:14:25.093Z,196.90
2018-02-09T21:16:55.209Z,189.83
2018-02-09T21:19:25.565Z,191.50
2018-02-09T21:21:55.752Z,186.63
2018-02-09T21:24:25.868Z,185.53
2018-02-09T21:26:55.994Z,184.33
2018-02-09T21:29:26.099Z,189.60
2018-02-09T21:31:56.158Z,180.93
2018-02-09T21:34:26.317Z,183.13
2018-02-09T21:36:56.440Z,189.27
2018-02-09T21:39:26.789Z,176.30
2018-02-09T21:41:56.879Z,210.83
2018-02-09T21:44:26.970Z,190.13
2018-02-09T21:46:57.005Z,180.40
2018-02-09T21:49:27.062Z,188.67
2018-02-09T21:51:57.172Z,192.23
2018-02-09T21:54:27.398Z,204.00
2018-02-09T21:56:57.488Z,190.27
2018-02-09T21:59:27.469Z,185.33
2018-02-09T22:01:57.405Z,188.60
2018-02-09T22:04:27.466Z,174.87
2018-02-09T22:06:57.394Z,200.10
2018-02-09T22:09:27.864Z,190.67
2018-02-09T22:11:57.921Z,178.23
2018-02-09T22:14:28.245Z,195.87
2018-02-09T22:16:58.306Z,188.83
2018-02-09T22:19:28.460Z,207.10
2018-02-09T22:21:58.510Z,189.60
2018-02-09T22:24:28.470Z,207.47
2018-02-09T22:26:58.384Z,184.67
2018-02-09T22:29:28.282Z,213.17
2018-02-09T22:31:58.246Z,206.47
2018-02-09T22:34:28.213Z,182.90
2018-02-09T22:36:58.105Z,189.70
2018-02-09T22:39:28.005Z,182.53
2018-02-09T22:41:57.937Z,207.10
2018-02-09T22:44:27.826Z,195.70
2018-02-09T22:46:58.629Z,196.83
2018-02-09T22:49:28.623Z,200.17
2018-02-09T22:51:58.471Z,198.63
2018-02-09T22:54:28.403Z,187.90
2018-02-09T22:56:58.567Z,193.20
2018-02-09T22:59:28.466Z,196.73
2018-02-09T23:01:58.375Z,203.20
2018-02-09T23:04:28.254Z,179.00
2018-02-09T23:06:58.135Z,183.77
2018-02-09T23:09:28.038Z,197.83
2018-02-09T23:11:58.524Z,192.30
2018-02-09T23:14:28.503Z,201.10
2018-02-09T23:16:58.391Z,202.67
2018-02-09T23:19:28.245Z,195.17
2018-02-09T23:21:58.178Z,197.40
2018-02-09T23:24:28.100Z,203.27
2018-02-09T23:26:57.997Z,203.10
2018-02-09T23:29:27.938Z,211.33
2018-02-09T23:31:58.038Z,204.60
2018-02-09T23:34:27.966Z,192.33
2018-02-09T23:36:57.849Z,202.07
2018-02-09T23:39:27.744Z,195.70
2018-02-09T23:41:57.646Z,191.10
2018-02-09T23:44:27.685Z,210.17
2018-02-09T23:46:58.489Z,195.97
2018-02-09T23:49:28.382Z,209.67
2018-02-09T23:51:58.247Z,203.43
2018-02-09T23:54:28.131Z,178.77
2018-02-09T23:56:58.761Z,199.27
2018-02-09T23:59:28.642Z,184.07
